<?xml version="1.0" encoding="utf-8"?>
<gpx xmlns:xsi="http://www.w3.org/2001/XMLSchema-instance" xmlns:xsd="http://www.w3.org/2001/XMLSchema" version="1.1" creator="Shapelink.com" xmlns="http://www.topografix.com/GPX/1/1" xmlns:gpxtpx="http://www.garmin.com/xmlschemas/TrackPointExtension/v1">
  <metadata>
    <name>Övrigt 2.51 km, 2020-06-01</name>
    <desc></desc>
    <author><name>Marian Moron</name></author> 
    <time>2020-06-01T19:59:37Z</time>
  </metadata>
  <trk>
    <name>Övrigt 2.51 km, 2020-06-01</name>
    <trkseg>
      <trkpt lat="51.229881612794" lon="4.457993729783">
        <ele>35.2</ele>
        <time>2020-06-01T19:59:37Z</time>
      </trkpt>
      <trkpt lat="51.229882953898" lon="4.458043099174">
        <ele>35</ele>
        <time>2020-06-01T19:59:39Z</time>
      </trkpt>
      <trkpt lat="51.229908853969" lon="4.458220376359">
        <ele>33.6</ele>
        <time>2020-06-01T19:59:45Z</time>
      </trkpt>
      <trkpt lat="51.230063667662" lon="4.458898136793">
        <ele>31.8</ele>
        <time>2020-06-01T20:00:26Z</time>
      </trkpt>
      <trkpt lat="51.2300722172" lon="4.458920684104">
        <ele>28.4</ele>
        <time>2020-06-01T20:00:33Z</time>
      </trkpt>
      <trkpt lat="51.230390226486" lon="4.458880031889">
        <ele>28.8</ele>
        <time>2020-06-01T20:01:05Z</time>
      </trkpt>
      <trkpt lat="51.230699518596" lon="4.458674759158">
        <ele>20.6</ele>
        <time>2020-06-01T20:01:44Z</time>
      </trkpt>
      <trkpt lat="51.230976372753" lon="4.458611475813">
        <ele>8.8</ele>
        <time>2020-06-01T20:02:37Z</time>
      </trkpt>
      <trkpt lat="51.231192206678" lon="4.458475772852">
        <ele>2.6</ele>
        <time>2020-06-01T20:03:18Z</time>
      </trkpt>
      <trkpt lat="51.231387253491" lon="4.458330179249">
        <ele>0.8</ele>
        <time>2020-06-01T20:03:45Z</time>
      </trkpt>
      <trkpt lat="51.23155748988" lon="4.458310733241">
        <ele>0.6</ele>
        <time>2020-06-01T20:04:15Z</time>
      </trkpt>
      <trkpt lat="51.231603171235" lon="4.4584331928">
        <ele>1</ele>
        <time>2020-06-01T20:04:25Z</time>
      </trkpt>
      <trkpt lat="51.231719176731" lon="4.458959743758">
        <ele>2</ele>
        <time>2020-06-01T20:05:01Z</time>
      </trkpt>
      <trkpt lat="51.231735269979" lon="4.459145738119">
        <ele>0.8</ele>
        <time>2020-06-01T20:05:16Z</time>
      </trkpt>
      <trkpt lat="51.231750692675" lon="4.459433656384">
        <ele>1.2</ele>
        <time>2020-06-01T20:05:46Z</time>
      </trkpt>
      <trkpt lat="51.231895112812" lon="4.460123319116">
        <ele>4.2</ele>
        <time>2020-06-01T20:06:27Z</time>
      </trkpt>
      <trkpt lat="51.231971723378" lon="4.46082287249">
        <ele>0.6</ele>
        <time>2020-06-01T20:07:14Z</time>
      </trkpt>
      <trkpt lat="51.232111701108" lon="4.461400050124">
        <ele>5</ele>
        <time>2020-06-01T20:07:55Z</time>
      </trkpt>
      <trkpt lat="51.232217229229" lon="4.461803890066">
        <ele>0</ele>
        <time>2020-06-01T20:08:29Z</time>
      </trkpt>
      <trkpt lat="51.232226197862" lon="4.462133382555">
        <ele>0</ele>
        <time>2020-06-01T20:08:48Z</time>
      </trkpt>
      <trkpt lat="51.232192418805" lon="4.462410907264">
        <ele>3</ele>
        <time>2020-06-01T20:09:04Z</time>
      </trkpt>
      <trkpt lat="51.232174230082" lon="4.462529511149">
        <ele>6.8</ele>
        <time>2020-06-01T20:09:13Z</time>
      </trkpt>
      <trkpt lat="51.232107593977" lon="4.462807538772">
        <ele>6.2</ele>
        <time>2020-06-01T20:09:28Z</time>
      </trkpt>
      <trkpt lat="51.232107258701" lon="4.462840060544">
        <ele>6.4</ele>
        <time>2020-06-01T20:09:30Z</time>
      </trkpt>
      <trkpt lat="51.232102061923" lon="4.463017756824">
        <ele>8.2</ele>
        <time>2020-06-01T20:09:41Z</time>
      </trkpt>
      <trkpt lat="51.232045651736" lon="4.463121943841">
        <ele>0.2</ele>
        <time>2020-06-01T20:10:26Z</time>
      </trkpt>
      <trkpt lat="51.232050094143" lon="4.463711191411">
        <ele>3.2</ele>
        <time>2020-06-01T20:11:04Z</time>
      </trkpt>
      <trkpt lat="51.232322002979" lon="4.464080665563">
        <ele>8.4</ele>
        <time>2020-06-01T20:12:32Z</time>
      </trkpt>
      <trkpt lat="51.232372294379" lon="4.464090220929">
        <ele>8.6</ele>
        <time>2020-06-01T20:12:39Z</time>
      </trkpt>
      <trkpt lat="51.232389309636" lon="4.464130789325">
        <ele>7</ele>
        <time>2020-06-01T20:12:43Z</time>
      </trkpt>
      <trkpt lat="51.23230766993" lon="4.464791199226">
        <ele>4.8</ele>
        <time>2020-06-01T20:13:20Z</time>
      </trkpt>
      <trkpt lat="51.23215176659" lon="4.465248264233">
        <ele>2.2</ele>
        <time>2020-06-01T20:13:51Z</time>
      </trkpt>
      <trkpt lat="51.231868039275" lon="4.465782526539">
        <ele>2.2</ele>
        <time>2020-06-01T20:14:27Z</time>
      </trkpt>
      <trkpt lat="51.23157928282" lon="4.466293487163">
        <ele>8</ele>
        <time>2020-06-01T20:15:09Z</time>
      </trkpt>
      <trkpt lat="51.231565955599" lon="4.46629709138">
        <ele>9.8</ele>
        <time>2020-06-01T20:15:24Z</time>
      </trkpt>
      <trkpt lat="51.231522034443" lon="4.466392058307">
        <ele>13.2</ele>
        <time>2020-06-01T20:15:34Z</time>
      </trkpt>
      <trkpt lat="51.231456152709" lon="4.466500017179">
        <ele>12</ele>
        <time>2020-06-01T20:15:41Z</time>
      </trkpt>
      <trkpt lat="51.231426983697" lon="4.466615184485">
        <ele>5.4</ele>
        <time>2020-06-01T20:15:53Z</time>
      </trkpt>
      <trkpt lat="51.231300919921" lon="4.467062777945">
        <ele>0.2</ele>
        <time>2020-06-01T20:16:18Z</time>
      </trkpt>
      <trkpt lat="51.231242498078" lon="4.467158834519">
        <ele>4</ele>
        <time>2020-06-01T20:17:14Z</time>
      </trkpt>
      <trkpt lat="51.231169659367" lon="4.467160510899">
        <ele>3.6</ele>
        <time>2020-06-01T20:17:23Z</time>
      </trkpt>
      <trkpt lat="51.230836562661" lon="4.467246509193">
        <ele>0</ele>
        <time>2020-06-01T20:18:02Z</time>
      </trkpt>
      <trkpt lat="51.231241408431" lon="4.467107453472">
        <ele>1.8</ele>
        <time>2020-06-01T20:18:34Z</time>
      </trkpt>
      <trkpt lat="51.231240989336" lon="4.467053474036">
        <ele>1.6</ele>
        <time>2020-06-01T20:18:37Z</time>
      </trkpt>
      <trkpt lat="51.231247108123" lon="4.46687208972">
        <ele>1.8</ele>
        <time>2020-06-01T20:18:47Z</time>
      </trkpt>
      <trkpt lat="51.231377614306" lon="4.466569754587">
        <ele>2</ele>
        <time>2020-06-01T20:19:14Z</time>
      </trkpt>
      <trkpt lat="51.231353642072" lon="4.466450312512">
        <ele>1</ele>
        <time>2020-06-01T20:19:22Z</time>
      </trkpt>
      <trkpt lat="51.231230428142" lon="4.466368169892">
        <ele>0.6</ele>
        <time>2020-06-01T20:19:38Z</time>
      </trkpt>
      <trkpt lat="51.231209221935" lon="4.466357524879">
        <ele>0.2</ele>
        <time>2020-06-01T20:19:45Z</time>
      </trkpt>
      <trkpt lat="51.231020461547" lon="4.466253086405">
        <ele>0</ele>
        <time>2020-06-01T20:20:03Z</time>
      </trkpt>
      <trkpt lat="51.230969583414" lon="4.466288290385">
        <ele>0</ele>
        <time>2020-06-01T20:20:13Z</time>
      </trkpt>
      <trkpt lat="51.230795156075" lon="4.466250404197">
        <ele>1.4</ele>
        <time>2020-06-01T20:20:31Z</time>
      </trkpt>
      <trkpt lat="51.230722485002" lon="4.465726451628">
        <ele>3.6</ele>
        <time>2020-06-01T20:21:26Z</time>
      </trkpt>
      <trkpt lat="51.230732459463" lon="4.465351948336">
        <ele>0</ele>
        <time>2020-06-01T20:22:17Z</time>
      </trkpt>
      <trkpt lat="51.230714354559" lon="4.465190345304">
        <ele>0</ele>
        <time>2020-06-01T20:22:29Z</time>
      </trkpt>
      <trkpt lat="51.230652160861" lon="4.464785750991">
        <ele>1</ele>
        <time>2020-06-01T20:23:04Z</time>
      </trkpt>
      <trkpt lat="51.230467926699" lon="4.464128442393">
        <ele>0</ele>
        <time>2020-06-01T20:23:49Z</time>
      </trkpt>
      <trkpt lat="51.230284782184" lon="4.463938005625">
        <ele>0.8</ele>
        <time>2020-06-01T20:24:22Z</time>
      </trkpt>
      <trkpt lat="51.229971550581" lon="4.464316280772">
        <ele>4.2</ele>
        <time>2020-06-01T20:25:58Z</time>
      </trkpt>
      <trkpt lat="51.229609955415" lon="4.464299433153">
        <ele>5.4</ele>
        <time>2020-06-01T20:26:48Z</time>
      </trkpt>
      <trkpt lat="51.229592940158" lon="4.464241095129">
        <ele>5.4</ele>
        <time>2020-06-01T20:26:52Z</time>
      </trkpt>
      <trkpt lat="51.229214832649" lon="4.464234976342">
        <ele>6.4</ele>
        <time>2020-06-01T20:27:27Z</time>
      </trkpt>
      <trkpt lat="51.229130175459" lon="4.464197760706">
        <ele>7.2</ele>
        <time>2020-06-01T20:27:34Z</time>
      </trkpt>
      <trkpt lat="51.229106789958" lon="4.464184182028">
        <ele>7.8</ele>
        <time>2020-06-01T20:27:37Z</time>
      </trkpt>
      <trkpt lat="51.229029173564" lon="4.464224750424">
        <ele>7.4</ele>
        <time>2020-06-01T20:27:45Z</time>
      </trkpt>
      <trkpt lat="51.228711248097" lon="4.464208824814">
        <ele>2.2</ele>
        <time>2020-06-01T20:28:53Z</time>
      </trkpt>
      <trkpt lat="51.228606893442" lon="4.464178566155">
        <ele>0</ele>
        <time>2020-06-01T20:29:05Z</time>
      </trkpt>
      <trkpt lat="51.228515866008" lon="4.463786879968">
        <ele>4.8</ele>
        <time>2020-06-01T20:30:06Z</time>
      </trkpt>
      <trkpt lat="51.228445709505" lon="4.463470127967">
        <ele>1.2</ele>
        <time>2020-06-01T20:31:02Z</time>
      </trkpt>
      <trkpt lat="51.228184110406" lon="4.463234680396">
        <ele>3.8</ele>
        <time>2020-06-01T20:31:37Z</time>
      </trkpt>
      <trkpt lat="51.228161311638" lon="4.463199392597">
        <ele>4.4</ele>
        <time>2020-06-01T20:31:40Z</time>
      </trkpt>
      <trkpt lat="51.227906669516" lon="4.462911809608">
        <ele>13.6</ele>
        <time>2020-06-01T20:32:18Z</time>
      </trkpt>
      <trkpt lat="51.227889821897" lon="4.462436974973">
        <ele>5.6</ele>
        <time>2020-06-01T20:32:59Z</time>
      </trkpt>
      <trkpt lat="51.227936257623" lon="4.462865792977">
        <ele>5</ele>
        <time>2020-06-01T20:33:24Z</time>
      </trkpt>
      <trkpt lat="51.22792058347" lon="4.462880126026">
        <ele>5</ele>
        <time>2020-06-01T20:33:26Z</time>
      </trkpt>
      <trkpt lat="51.227773145849" lon="4.462930668883">
        <ele>2.8</ele>
        <time>2020-06-01T20:33:40Z</time>
      </trkpt>
      <trkpt lat="51.227553204793" lon="4.462328848463">
        <ele>6.2</ele>
        <time>2020-06-01T20:34:18Z</time>
      </trkpt>
      <trkpt lat="51.227548930024" lon="4.462294315035">
        <ele>6.4</ele>
        <time>2020-06-01T20:34:20Z</time>
      </trkpt>
      <trkpt lat="51.227555551725" lon="4.462234887364">
        <ele>6</ele>
        <time>2020-06-01T20:34:24Z</time>
      </trkpt>
      <trkpt lat="51.227542056866" lon="4.462074625436">
        <ele>5.8</ele>
        <time>2020-06-01T20:34:32Z</time>
      </trkpt>
      <trkpt lat="51.227454885106" lon="4.461912268033">
        <ele>4</ele>
        <time>2020-06-01T20:34:43Z</time>
      </trkpt>
      <trkpt lat="51.227432673071" lon="4.461644717785">
        <ele>4.2</ele>
        <time>2020-06-01T20:35:26Z</time>
      </trkpt>
      <trkpt lat="51.227408868475" lon="4.461134762989">
        <ele>3.4</ele>
        <time>2020-06-01T20:36:21Z</time>
      </trkpt>
      <trkpt lat="51.227436864021" lon="4.4609142352">
        <ele>4.6</ele>
        <time>2020-06-01T20:36:33Z</time>
      </trkpt>
      <trkpt lat="51.227428230664" lon="4.460736455101">
        <ele>15.2</ele>
        <time>2020-06-01T20:36:50Z</time>
      </trkpt>
      <trkpt lat="51.227368886812" lon="4.460506371946">
        <ele>12.4</ele>
        <time>2020-06-01T20:37:07Z</time>
      </trkpt>
      <trkpt lat="51.227263610148" lon="4.460139663821">
        <ele>7.4</ele>
        <time>2020-06-01T20:37:32Z</time>
      </trkpt>
      <trkpt lat="51.227072167552" lon="4.459529629139">
        <ele>0.4</ele>
        <time>2020-06-01T20:38:23Z</time>
      </trkpt>
      <trkpt lat="51.227015589727" lon="4.459184462497">
        <ele>4</ele>
        <time>2020-06-01T20:39:25Z</time>
      </trkpt>
      <trkpt lat="51.227065042937" lon="4.459157975693">
        <ele>6.4</ele>
        <time>2020-06-01T20:39:30Z</time>
      </trkpt>
      <trkpt lat="51.227499057719" lon="4.45896041431">
        <ele>24.8</ele>
        <time>2020-06-01T20:40:23Z</time>
      </trkpt>
      <trkpt lat="51.227910692828" lon="4.458667969819">
        <ele>17.4</ele>
        <time>2020-06-01T20:41:01Z</time>
      </trkpt>
      <trkpt lat="51.228320651557" lon="4.458379129545">
        <ele>7.6</ele>
        <time>2020-06-01T20:41:41Z</time>
      </trkpt>
      <trkpt lat="51.228554925662" lon="4.458221046911">
        <ele>8</ele>
        <time>2020-06-01T20:42:04Z</time>
      </trkpt>
      <trkpt lat="51.228626926183" lon="4.458245941154">
        <ele>5.8</ele>
        <time>2020-06-01T20:42:12Z</time>
      </trkpt>
      <trkpt lat="51.229070244874" lon="4.458114429143">
        <ele>10.8</ele>
        <time>2020-06-01T20:43:00Z</time>
      </trkpt>
      <trkpt lat="51.229446843641" lon="4.458008817203">
        <ele>8.2</ele>
        <time>2020-06-01T20:43:39Z</time>
      </trkpt>
      <trkpt lat="51.229623534093" lon="4.458020048949">
        <ele>8.2</ele>
        <time>2020-06-01T20:43:59Z</time>
      </trkpt>
    </trkseg>
  </trk>
</gpx>